createdAt,value
2018-04-12T00:00:47.084Z,11.10
2018-04-12T00:03:14.685Z,12.70
2018-04-12T00:05:41.656Z,11.27
2018-04-12T00:08:08.518Z,12.10
2018-04-12T00:10:35.440Z,11.50
2018-04-12T00:13:02.293Z,12.00
2018-04-12T00:15:29.214Z,13.67
2018-04-12T00:17:56.185Z,14.60
2018-04-12T00:20:23.050Z,13.10
2018-04-12T00:22:49.965Z,13.27
2018-04-12T00:25:16.953Z,13.90
2018-04-12T00:27:44.677Z,12.47
2018-04-12T00:30:11.597Z,14.10
2018-04-12T00:32:38.515Z,15.57
2018-04-12T00:35:05.437Z,14.63
2018-04-12T00:37:32.404Z,16.47
2018-04-12T00:39:59.265Z,14.03
2018-04-12T00:42:26.225Z,17.23
2018-04-12T00:44:53.149Z,18.20
2018-04-12T00:47:20.739Z,15.83
2018-04-12T00:49:47.665Z,16.67
2018-04-12T00:52:14.585Z,15.97
2018-04-12T00:54:41.587Z,16.37
2018-04-12T00:57:08.445Z,18.10
2018-04-12T00:59:35.364Z,17.13
2018-04-12T01:02:02.233Z,16.50
2018-04-12T01:04:29.165Z,17.33
2018-04-12T01:06:56.088Z,17.10
2018-04-12T01:09:22.953Z,16.53
2018-04-12T01:11:49.897Z,18.80
2018-04-12T01:14:16.813Z,18.57
2018-04-12T01:16:43.740Z,17.40
2018-04-12T01:19:10.705Z,19.87
2018-04-12T01:21:37.565Z,20.77
2018-04-12T01:24:04.503Z,21.83
2018-04-12T01:26:31.436Z,21.43
2018-04-12T01:28:59.089Z,23.10
2018-04-12T01:31:25.957Z,26.20
2018-04-12T01:33:52.897Z,23.23
2018-04-12T01:36:20.495Z,24.17
2018-04-12T01:38:47.349Z,24.97
2018-04-12T01:41:14.273Z,24.60
2018-04-12T01:43:41.197Z,23.90
2018-04-12T01:46:08.061Z,23.93
2018-04-12T01:48:34.979Z,28.90
2018-04-12T01:51:01.912Z,26.60
2018-04-12T01:53:28.845Z,28.10
2018-04-12T01:55:55.707Z,27.50
2018-04-12T01:58:22.574Z,27.67
2018-04-12T02:00:49.595Z,25.47
2018-04-12T02:03:16.457Z,28.77
2018-04-12T02:05:43.391Z,30.70
2018-04-12T02:08:10.252Z,27.53
2018-04-12T02:10:37.178Z,33.10
2018-04-12T02:13:04.160Z,31.90
2018-04-12T02:15:31.092Z,32.93
2018-04-12T02:17:58.004Z,32.40
2018-04-12T02:20:24.866Z,34.33
2018-04-12T02:22:51.805Z,33.30
2018-04-12T02:25:18.729Z,33.50
2018-04-12T02:27:45.699Z,32.50
2018-04-12T02:30:13.414Z,37.67
2018-04-12T02:32:40.283Z,40.20
2018-04-12T02:35:07.211Z,35.53
2018-04-12T02:37:34.073Z,37.83
2018-04-12T02:40:00.983Z,37.53
2018-04-12T02:42:27.853Z,37.43
2018-04-12T02:44:55.324Z,38.97
2018-04-12T02:47:22.240Z,39.27
2018-04-12T02:49:49.093Z,38.17
2018-04-12T02:52:16.010Z,38.77
2018-04-12T02:54:42.869Z,39.30
2018-04-12T02:57:09.721Z,41.90
2018-04-12T02:59:36.630Z,45.97
2018-04-12T03:02:03.554Z,41.20
2018-04-12T03:04:30.530Z,45.93
2018-04-12T03:06:57.380Z,43.27
2018-04-12T03:09:24.317Z,45.70
2018-04-12T03:11:51.233Z,43.10
2018-04-12T03:14:18.083Z,50.20
2018-04-12T03:16:44.992Z,49.53
2018-04-12T03:19:11.847Z,43.77
2018-04-12T03:21:38.761Z,48.80
2018-04-12T03:24:05.697Z,48.97
2018-04-12T03:26:32.604Z,48.47
2018-04-12T03:28:59.459Z,52.87
2018-04-12T03:31:27.305Z,52.47
2018-04-12T03:33:54.194Z,51.00
2018-04-12T03:36:21.043Z,52.37
2018-04-12T03:38:47.962Z,53.37
2018-04-12T03:41:15.562Z,52.43
2018-04-12T03:43:42.479Z,48.33
2018-04-12T03:46:09.402Z,50.43
2018-04-12T03:48:36.387Z,54.90
2018-04-12T03:51:03.289Z,52.43
2018-04-12T03:53:30.199Z,49.70
2018-04-12T03:55:57.137Z,51.73
2018-04-12T03:58:24.052Z,58.03
2018-04-12T04:00:50.969Z,59.47
2018-04-12T04:03:17.823Z,53.77
2018-04-12T04:05:44.744Z,52.70
2018-04-12T04:08:11.602Z,50.30
2018-04-12T04:10:38.527Z,55.60
2018-04-12T04:13:05.453Z,49.73
2018-04-12T04:15:45.384Z,52.57
2018-04-12T04:18:24.522Z,54.47
2018-04-12T04:21:10.482Z,51.10
2018-04-12T04:23:37.478Z,55.73
2018-04-12T04:26:06.852Z,57.30
2018-04-12T04:31:18.948Z,56.67
2018-04-12T04:33:45.868Z,55.73
2018-04-12T04:36:12.815Z,63.50
2018-04-12T04:38:39.685Z,58.30
2018-04-12T04:41:06.615Z,56.40
2018-04-12T04:43:33.481Z,55.20
2018-04-12T04:46:01.005Z,58.87
2018-04-12T04:48:27.865Z,51.20
2018-04-12T04:50:54.847Z,53.77
2018-04-12T04:53:21.703Z,52.87
2018-04-12T04:55:48.567Z,56.70
2018-04-12T04:58:15.490Z,55.93
2018-04-12T05:00:42.382Z,54.73
2018-04-12T05:03:09.374Z,59.40
2018-04-12T05:05:36.322Z,55.93
2018-04-12T05:08:03.310Z,53.33
2018-04-12T05:10:30.225Z,54.17
2018-04-12T05:12:57.091Z,61.30
2018-04-12T05:15:24.034Z,59.03
2018-04-12T05:17:50.956Z,54.80
2018-04-12T05:20:17.806Z,52.23
2018-04-12T05:22:44.791Z,53.77
2018-04-12T05:25:11.650Z,53.80
2018-04-12T05:27:39.624Z,53.17
2018-04-12T05:30:06.915Z,55.77
2018-04-12T05:32:33.856Z,54.17
2018-04-12T05:35:01.955Z,54.10
2018-04-12T05:37:30.853Z,51.17
2018-04-12T05:39:58.893Z,57.40
2018-04-12T05:42:35.183Z,53.53
2018-04-12T05:45:04.073Z,56.20
2018-04-12T05:47:31.026Z,52.80
2018-04-12T05:49:57.972Z,51.97
2018-04-12T05:52:24.844Z,57.63
2018-04-12T05:54:51.777Z,52.87
2018-04-12T05:57:18.710Z,52.30
2018-04-12T05:59:45.587Z,51.80
2018-04-12T06:02:12.448Z,58.00
2018-04-12T06:04:39.382Z,50.73
2018-04-12T06:07:06.252Z,51.93
2018-04-12T06:09:33.110Z,53.60
2018-04-12T06:12:00.041Z,51.23
2018-04-12T06:14:27.014Z,47.07
2018-04-12T06:16:53.905Z,48.60
2018-04-12T06:19:20.838Z,44.37
2018-04-12T06:21:47.689Z,43.97
2018-04-12T06:24:14.622Z,48.57
2018-04-12T06:26:41.545Z,48.30
2018-04-12T06:29:08.458Z,43.73
2018-04-12T06:31:36.178Z,45.63
2018-04-12T06:34:03.127Z,44.67
2018-04-12T06:36:30.032Z,41.80
2018-04-12T06:38:56.976Z,43.07
2018-04-12T06:41:23.850Z,40.90
2018-04-12T06:43:50.919Z,40.10
2018-04-12T06:46:17.845Z,35.60
2018-04-12T06:48:44.771Z,37.20
2018-04-12T06:51:11.726Z,37.77
2018-04-12T06:53:38.581Z,38.23
2018-04-12T06:56:05.541Z,37.93
2018-04-12T06:58:32.468Z,34.17
2018-04-12T07:00:59.337Z,34.50
2018-04-12T07:03:26.219Z,35.10
2018-04-12T07:05:53.882Z,35.77
2018-04-12T07:08:20.789Z,33.93
2018-04-12T07:10:47.721Z,34.33
2018-04-12T07:13:14.657Z,33.27
2018-04-12T07:15:41.512Z,31.30
2018-04-12T07:18:08.515Z,31.30
2018-04-12T07:20:36.175Z,30.63
2018-04-12T07:23:03.799Z,28.80
2018-04-12T07:25:30.801Z,25.40
2018-04-12T07:27:57.648Z,24.83
2018-04-12T07:30:24.556Z,24.00
2018-04-12T07:32:51.482Z,23.27
2018-04-12T07:35:18.346Z,23.33
2018-04-12T07:37:45.311Z,21.53
2018-04-12T07:40:12.294Z,20.23
2018-04-12T07:42:39.149Z,21.73
2018-04-12T07:45:06.009Z,22.47
2018-04-12T07:47:32.923Z,21.27
2018-04-12T07:49:59.785Z,18.47
2018-04-12T07:52:26.700Z,17.37
2018-04-12T07:54:53.616Z,13.20
2018-04-12T07:57:20.707Z,13.87
2018-04-12T07:59:47.626Z,13.43
2018-04-12T08:02:15.216Z,13.80
2018-04-12T08:04:42.129Z,15.17
2018-04-12T08:07:09.110Z,13.50
2018-04-12T08:09:35.958Z,12.70
2018-04-12T08:12:02.900Z,12.93
2018-04-12T08:14:29.810Z,13.17
2018-04-12T08:16:57.509Z,11.73
2018-04-12T08:19:24.411Z,11.77
2018-04-12T08:21:51.307Z,10.13
2018-04-12T08:24:18.238Z,10.93
2018-04-12T08:26:45.088Z,8.53
2018-04-12T08:29:12.006Z,9.40
2018-04-12T08:31:38.937Z,8.70
2018-04-12T08:34:05.853Z,6.73
2018-04-12T08:36:32.776Z,6.90
2018-04-12T08:38:59.618Z,6.60
2018-04-12T08:41:26.530Z,6.17
2018-04-12T08:43:54.130Z,8.40
2018-04-12T08:46:21.047Z,6.60
2018-04-12T08:48:47.892Z,6.10
2018-04-12T08:51:14.823Z,5.50
2018-04-12T08:53:41.665Z,5.53
2018-04-12T08:56:08.518Z,6.33
2018-04-12T08:58:36.176Z,5.07
2018-04-12T09:01:03.045Z,7.70
2018-04-12T09:03:29.962Z,8.07
2018-04-12T09:05:57.560Z,5.63
2018-04-12T09:08:24.475Z,9.20
2018-04-12T09:10:52.153Z,4.80
2018-04-12T09:13:19.000Z,5.10
2018-04-12T09:15:45.935Z,4.77
2018-04-12T09:18:13.531Z,6.03
2018-04-12T09:20:40.437Z,5.00
2018-04-12T09:23:08.021Z,6.43
2018-04-12T09:25:34.938Z,5.33
2018-04-12T09:28:02.533Z,6.47
2018-04-12T09:30:29.511Z,8.30
2018-04-12T09:32:56.374Z,5.80
2018-04-12T09:35:23.306Z,4.80
2018-04-12T09:37:50.229Z,5.40
2018-04-12T09:40:17.081Z,6.47
2018-04-12T09:42:43.995Z,5.90
2018-04-12T09:45:10.926Z,5.93
2018-04-12T09:47:37.769Z,6.70
2018-04-12T09:50:04.642Z,5.67
2018-04-12T09:52:31.551Z,5.43
2018-04-12T09:54:59.219Z,6.27
2018-04-12T09:57:26.818Z,5.70
2018-04-12T09:59:53.726Z,4.57
2018-04-12T10:02:26.717Z,4.77
2018-04-12T10:04:55.395Z,7.33
2018-04-12T10:07:22.386Z,6.73
2018-04-12T10:09:49.241Z,11.40
2018-04-12T10:12:16.157Z,5.10
2018-04-12T10:14:43.020Z,6.70
2018-04-12T10:17:09.933Z,5.10
2018-04-12T10:19:37.530Z,5.73
2018-04-12T10:22:04.460Z,4.67
2018-04-12T10:24:31.313Z,9.90
2018-04-12T10:26:58.230Z,11.87
2018-04-12T10:29:25.891Z,4.93
2018-04-12T10:31:52.880Z,4.60
2018-04-12T10:34:19.805Z,5.60
2018-04-12T10:36:46.727Z,5.00
2018-04-12T10:39:14.327Z,4.83
2018-04-12T10:41:41.342Z,4.87
2018-04-12T10:44:08.286Z,5.30
2018-04-12T10:46:35.987Z,5.63
2018-04-12T10:49:02.855Z,4.63
2018-04-12T10:51:29.842Z,5.50
2018-04-12T10:53:57.490Z,5.77
2018-04-12T10:56:24.465Z,4.60
2018-04-12T10:58:51.463Z,5.07
2018-04-12T11:01:18.392Z,4.50
2018-04-12T11:03:45.257Z,5.20
2018-04-12T11:06:12.177Z,5.13
2018-04-12T11:08:39.100Z,6.53
2018-04-12T11:11:06.014Z,4.60
2018-04-12T11:13:33.746Z,7.87
2018-04-12T11:16:00.597Z,6.10
2018-04-12T11:18:27.584Z,9.53
2018-04-12T11:20:55.168Z,7.63
2018-04-12T11:23:22.026Z,9.60
2018-04-12T11:25:48.980Z,9.90
2018-04-12T11:28:15.860Z,7.37
2018-04-12T11:30:42.785Z,7.80
2018-04-12T11:33:09.708Z,8.90
2018-04-12T11:35:36.559Z,11.53
2018-04-12T11:38:09.817Z,9.17
2018-04-12T11:40:37.360Z,9.70
2018-04-12T11:43:05.023Z,9.80
2018-04-12T11:45:32.626Z,11.17
2018-04-12T11:47:59.493Z,10.27
2018-04-12T11:50:26.413Z,10.20
2018-04-12T11:52:54.339Z,11.27
2018-04-12T11:55:21.274Z,9.80
2018-04-12T11:57:48.193Z,10.27
2018-04-12T12:00:15.043Z,10.60
2018-04-12T12:02:41.960Z,11.83
2018-04-12T12:05:08.813Z,12.20
2018-04-12T12:07:35.741Z,10.87
2018-04-12T12:10:16.300Z,9.90
2018-04-12T12:12:45.517Z,11.20
2018-04-12T12:15:13.970Z,11.90
2018-04-12T12:17:47.267Z,12.57
2018-04-12T12:20:31.380Z,9.23
2018-04-12T12:23:10.960Z,9.17
2018-04-12T12:25:47.219Z,10.60
2018-04-12T12:28:25.283Z,11.80
2018-04-12T12:30:54.606Z,11.13
2018-04-12T12:33:32.788Z,9.33
2018-04-12T12:36:12.191Z,9.00
2018-04-12T12:38:40.895Z,7.60
2018-04-12T12:41:11.805Z,8.43
2018-04-12T12:43:38.834Z,8.20
2018-04-12T12:46:06.600Z,9.80
2018-04-12T12:48:36.732Z,11.33
2018-04-12T12:51:04.185Z,10.17
2018-04-12T12:53:39.870Z,10.20
2018-04-12T12:56:09.165Z,10.57
2018-04-12T12:58:37.989Z,11.53
2018-04-12T13:01:07.557Z,9.73
2018-04-12T13:03:34.542Z,11.93
2018-04-12T13:06:01.509Z,11.57
2018-04-12T13:08:28.437Z,11.93
2018-04-12T13:10:55.397Z,10.70
2018-04-12T13:13:22.301Z,10.20
2018-04-12T13:15:49.227Z,9.50
2018-04-12T13:18:16.824Z,8.93
2018-04-12T13:20:43.778Z,8.60
2018-04-12T13:23:10.645Z,7.17
2018-04-12T13:25:37.516Z,9.23
2018-04-12T13:28:05.245Z,7.77
2018-04-12T13:30:32.173Z,8.03
2018-04-12T13:32:59.130Z,7.40
2018-04-12T13:35:25.997Z,7.37
2018-04-12T13:37:52.918Z,7.43
2018-04-12T13:40:19.782Z,7.70
2018-04-12T13:42:46.761Z,6.23
2018-04-12T13:45:13.649Z,10.47
2018-04-12T13:47:52.686Z,4.83
2018-04-12T13:50:20.073Z,5.97
2018-04-12T13:52:47.169Z,5.10
2018-04-12T13:55:14.099Z,4.10
2018-04-12T13:57:43.057Z,6.90
2018-04-12T14:00:09.939Z,4.40
2018-04-12T14:02:36.815Z,4.40
2018-04-12T14:05:03.844Z,4.40
2018-04-12T14:07:38.850Z,7.40
2018-04-12T14:10:07.144Z,5.13
2018-04-12T14:12:37.294Z,4.60
2018-04-12T14:15:04.438Z,5.83
2018-04-12T14:17:31.321Z,4.60
2018-04-12T14:19:58.246Z,5.47
2018-04-12T14:25:15.918Z,3.37
2018-04-12T14:27:44.131Z,3.63
2018-04-12T14:30:11.225Z,4.87
2018-04-12T14:32:38.071Z,3.67
2018-04-12T14:35:04.940Z,3.60
2018-04-12T14:37:32.611Z,3.07
2018-04-12T14:40:00.345Z,4.43
2018-04-12T14:42:27.264Z,12.83
2018-04-12T14:44:54.146Z,6.57
2018-04-12T14:47:21.038Z,4.03
2018-04-12T14:49:47.989Z,3.43
2018-04-12T14:52:14.905Z,3.20
2018-04-12T14:54:42.566Z,3.87
2018-04-12T14:57:10.237Z,5.33
2018-04-12T14:59:37.847Z,3.33
2018-04-12T15:02:04.792Z,6.47
2018-04-12T15:04:31.645Z,4.07
2018-04-12T15:06:58.525Z,5.17
2018-04-12T15:09:26.199Z,3.30
2018-04-12T15:11:53.177Z,6.90
2018-04-12T15:14:20.034Z,5.10
2018-04-12T15:16:46.957Z,5.00
2018-04-12T15:19:13.885Z,5.37
2018-04-12T15:21:40.733Z,6.90
2018-04-12T15:24:07.685Z,9.43
2018-04-12T15:26:42.396Z,7.97
2018-04-12T15:29:17.173Z,7.53
2018-04-12T15:31:46.549Z,9.07
2018-04-12T15:34:18.067Z,7.43
2018-04-12T15:36:47.154Z,8.30
2018-04-12T15:39:14.064Z,8.27
2018-04-12T15:41:48.337Z,10.90
2018-04-12T15:44:15.688Z,7.90
2018-04-12T15:46:43.351Z,8.00
2018-04-12T15:49:10.289Z,8.67
2018-04-12T15:51:37.280Z,12.03
2018-04-12T15:54:04.167Z,7.53
2018-04-12T15:56:31.162Z,8.00
2018-04-12T15:58:58.076Z,6.93
2018-04-12T16:01:25.052Z,6.83
2018-04-12T16:03:51.957Z,9.00
2018-04-12T16:06:18.804Z,6.70
2018-04-12T16:08:45.776Z,7.43
2018-04-12T16:11:13.369Z,7.43
2018-04-12T16:13:50.376Z,7.30
2018-04-12T16:16:17.361Z,8.13
2018-04-12T16:18:49.310Z,7.70
2018-04-12T16:21:17.023Z,9.47
2018-04-12T16:23:43.905Z,7.97
2018-04-12T16:26:10.860Z,6.83
2018-04-12T16:28:41.018Z,7.97
2018-04-12T16:31:07.936Z,8.53
2018-04-12T16:33:43.060Z,9.03
2018-04-12T16:36:10.213Z,9.07
2018-04-12T16:38:37.962Z,9.33
2018-04-12T16:41:06.260Z,9.50
2018-04-12T16:43:34.255Z,9.30
2018-04-12T16:46:02.385Z,10.57
2018-04-12T16:48:34.597Z,10.53
2018-04-12T16:51:09.355Z,10.80
2018-04-12T16:53:44.604Z,9.37
2018-04-12T16:56:19.312Z,8.83
2018-04-12T16:58:59.955Z,9.53
2018-04-12T17:01:27.875Z,8.37
2018-04-12T17:03:54.802Z,9.20
2018-04-12T17:06:21.721Z,9.10
2018-04-12T17:08:48.649Z,8.50
2018-04-12T17:11:15.598Z,9.03
2018-04-12T17:13:42.609Z,8.77
2018-04-12T17:16:09.604Z,9.00
2018-04-12T17:18:37.202Z,8.07
2018-04-12T17:21:04.137Z,8.50
2018-04-12T17:23:31.064Z,10.47
2018-04-12T17:25:58.661Z,8.60
2018-04-12T17:28:25.665Z,8.40
2018-04-12T17:30:52.546Z,9.33
2018-04-12T17:33:19.466Z,9.27
2018-04-12T17:35:47.144Z,8.70
2018-04-12T17:38:14.072Z,8.07
2018-04-12T17:40:41.733Z,8.87
2018-04-12T17:43:09.396Z,10.03
2018-04-12T17:45:37.129Z,11.17
2018-04-12T17:48:04.079Z,9.10
2018-04-12T17:50:30.925Z,8.53
2018-04-12T17:52:57.838Z,9.77
2018-04-12T17:55:24.699Z,7.50
2018-04-12T17:57:51.617Z,9.07
2018-04-12T18:00:18.538Z,8.30
2018-04-12T18:02:46.202Z,7.53
2018-04-12T18:05:13.784Z,7.50
2018-04-12T18:07:40.786Z,8.80
2018-04-12T18:10:07.732Z,9.50
2018-04-12T18:12:34.647Z,11.80
2018-04-12T18:15:01.579Z,21.70
2018-04-12T18:17:28.514Z,16.00
2018-04-12T18:19:55.451Z,14.47
2018-04-12T18:22:22.369Z,11.47
2018-04-12T18:24:49.274Z,8.40
2018-04-12T18:27:16.193Z,11.23
2018-04-12T18:29:43.130Z,8.93
2018-04-12T18:32:09.993Z,13.13
2018-04-12T18:34:36.865Z,9.50
2018-04-12T18:37:03.814Z,7.40
2018-04-12T18:39:30.734Z,10.57
2018-04-12T18:41:57.715Z,11.13
2018-04-12T18:44:24.576Z,16.97
2018-04-12T18:46:52.282Z,12.73
2018-04-12T18:49:19.142Z,9.23
2018-04-12T18:51:46.061Z,10.20
2018-04-12T18:54:12.916Z,8.97
2018-04-12T18:56:39.841Z,7.80
2018-04-12T18:59:06.761Z,9.27
2018-04-12T19:01:33.618Z,7.90
2018-04-12T19:04:01.314Z,11.10
2018-04-12T19:06:28.201Z,8.37
2018-04-12T19:08:55.121Z,9.60
2018-04-12T19:11:21.983Z,11.90
2018-04-12T19:13:48.921Z,10.20
2018-04-12T19:16:15.875Z,10.03
2018-04-12T19:18:42.727Z,10.07
2018-04-12T19:21:09.660Z,10.10
2018-04-12T19:23:36.581Z,11.00
2018-04-12T19:26:03.634Z,12.40
2018-04-12T19:28:30.544Z,11.83
2018-04-12T19:30:58.206Z,10.53
2018-04-12T19:33:25.867Z,10.90
2018-04-12T19:35:53.617Z,11.30
2018-04-12T19:38:20.860Z,9.97
2018-04-12T19:40:47.757Z,9.83
2018-04-12T19:43:16.753Z,11.27
2018-04-12T19:45:43.706Z,10.30
2018-04-12T19:48:11.745Z,10.33
2018-04-12T19:50:38.780Z,12.43
2018-04-12T19:53:05.640Z,10.43
2018-04-12T19:55:34.258Z,10.03
2018-04-12T19:58:01.195Z,13.03
2018-04-12T20:00:28.120Z,13.37
2018-04-12T20:02:55.781Z,13.07
2018-04-12T20:05:23.466Z,12.30
2018-04-12T20:07:50.427Z,13.87
2018-04-12T20:10:17.310Z,13.57
2018-04-12T20:12:44.237Z,14.37
2018-04-12T20:15:11.110Z,13.53
2018-04-12T20:17:38.097Z,14.80
2018-04-12T20:20:15.377Z,14.27
2018-04-12T20:22:43.847Z,13.93
2018-04-12T20:25:21.736Z,13.43
2018-04-12T20:27:49.918Z,13.17
2018-04-12T20:30:28.703Z,13.33
2018-04-12T20:33:05.979Z,14.30
2018-04-12T20:35:45.258Z,14.27
2018-04-12T20:38:12.874Z,15.87
2018-04-12T20:40:52.450Z,16.00
2018-04-12T20:43:20.001Z,14.93
2018-04-12T20:45:46.934Z,14.47
2018-04-12T20:48:24.567Z,15.60
2018-04-12T20:50:53.772Z,16.67
2018-04-12T20:53:30.705Z,19.30
2018-04-12T20:56:10.018Z,16.33
2018-04-12T20:58:48.554Z,15.87
2018-04-12T21:01:27.873Z,16.10
2018-04-12T21:04:06.729Z,15.00
2018-04-12T21:06:38.441Z,17.57
2018-04-12T21:09:05.785Z,14.90
2018-04-12T21:11:36.060Z,14.43
2018-04-12T21:14:03.161Z,13.00
2018-04-12T21:16:30.766Z,12.67
2018-04-12T21:18:57.631Z,12.37
2018-04-12T21:21:24.550Z,13.73
2018-04-12T21:23:51.485Z,13.37
2018-04-12T21:26:18.443Z,13.60
2018-04-12T21:28:45.379Z,13.83
2018-04-12T21:31:12.320Z,12.80
2018-04-12T21:33:39.174Z,14.40
2018-04-12T21:36:06.114Z,14.63
2018-04-12T21:38:33.074Z,14.53
2018-04-12T21:41:00.009Z,16.47
2018-04-12T21:43:26.965Z,16.37
2018-04-12T21:45:53.931Z,18.20
2018-04-12T21:48:20.939Z,21.10
2018-04-12T21:50:47.830Z,17.77
2018-04-12T21:53:14.774Z,19.97
2018-04-12T21:55:41.666Z,17.83
2018-04-12T21:58:08.595Z,18.37
2018-04-12T22:00:36.334Z,17.93
2018-04-12T22:03:03.314Z,17.70
2018-04-12T22:05:30.262Z,17.60
2018-04-12T22:07:57.867Z,18.90
2018-04-12T22:10:24.740Z,18.30
2018-04-12T22:12:51.657Z,18.40
2018-04-12T22:15:18.516Z,18.40
2018-04-12T22:17:45.491Z,19.17
2018-04-12T22:20:12.413Z,19.33
2018-04-12T22:22:39.267Z,16.33
2018-04-12T22:25:06.206Z,18.80
2018-04-12T22:27:33.137Z,17.70
2018-04-12T22:29:59.992Z,17.00
2018-04-12T22:32:26.906Z,19.60
2018-04-12T22:34:53.821Z,19.50
2018-04-12T22:37:20.797Z,18.80
2018-04-12T22:39:47.645Z,18.03
2018-04-12T22:42:14.641Z,18.73
2018-04-12T22:44:41.507Z,17.17
2018-04-12T22:47:08.516Z,19.90
2018-04-12T22:49:35.442Z,18.43
2018-04-12T22:52:02.321Z,16.53
2018-04-12T22:54:29.241Z,16.33
2018-04-12T22:56:56.177Z,15.70
2018-04-12T22:59:23.158Z,18.00
2018-04-12T23:01:50.023Z,16.43
2018-04-12T23:04:17.772Z,17.93
2018-04-12T23:06:45.383Z,17.77
2018-04-12T23:09:12.317Z,18.50
2018-04-12T23:11:39.185Z,16.80
2018-04-12T23:14:06.036Z,15.73
2018-04-12T23:16:32.969Z,16.93
2018-04-12T23:19:00.948Z,18.73
2018-04-12T23:21:28.972Z,16.53
2018-04-12T23:23:57.327Z,19.00
2018-04-12T23:26:25.389Z,14.87
2018-04-12T23:28:53.699Z,18.27
2018-04-12T23:31:21.219Z,14.33
2018-04-12T23:33:49.331Z,16.70
2018-04-12T23:36:19.101Z,16.00
2018-04-12T23:38:49.795Z,15.00
2018-04-12T23:41:17.952Z,16.77
2018-04-12T23:43:45.716Z,15.90
2018-04-12T23:46:13.892Z,17.40
2018-04-12T23:48:40.902Z,16.33
2018-04-12T23:51:07.819Z,16.57
2018-04-12T23:53:34.676Z,16.37
2018-04-12T23:56:01.600Z,15.87
2018-04-12T23:58:29.454Z,16.67
